createdAt,value
2023-04-23T00:01:35.532Z,3.80
2023-04-23T00:04:02.117Z,4.00
2023-04-23T00:06:28.945Z,4.10
2023-04-23T00:08:56.579Z,4.35
2023-04-23T00:11:23.011Z,3.88
2023-04-23T00:13:49.852Z,3.85
2023-04-23T00:16:16.411Z,3.95
2023-04-23T00:18:42.837Z,3.70
2023-04-23T00:21:09.304Z,3.90
2023-04-23T00:23:35.662Z,4.45
2023-04-23T00:26:02.108Z,3.78
2023-04-23T00:28:28.466Z,3.50
2023-04-23T00:30:54.796Z,3.70
2023-04-23T00:33:21.095Z,3.60
2023-04-23T00:35:47.522Z,3.28
2023-04-23T00:38:13.874Z,3.45
2023-04-23T00:40:40.351Z,3.90
2023-04-23T00:43:07.381Z,3.70
2023-04-23T00:45:34.033Z,3.67
2023-04-23T00:48:00.591Z,3.90
2023-04-23T00:50:27.090Z,3.67
2023-04-23T00:52:53.374Z,3.78
2023-04-23T00:55:22.741Z,4.22
2023-04-23T00:57:49.233Z,3.90
2023-04-23T01:00:15.701Z,3.88
2023-04-23T01:02:43.581Z,3.63
2023-04-23T01:05:11.403Z,3.42
2023-04-23T01:07:37.891Z,3.72
2023-04-23T01:10:05.063Z,3.58
2023-04-23T01:12:31.600Z,3.72
2023-04-23T01:14:58.556Z,3.53
2023-04-23T01:17:24.864Z,3.60
2023-04-23T01:19:51.279Z,3.63
2023-04-23T01:22:17.702Z,3.35
2023-04-23T01:24:44.139Z,3.50
2023-04-23T01:27:11.359Z,4.00
2023-04-23T01:29:38.589Z,3.60
2023-04-23T01:32:05.741Z,3.70
2023-04-23T01:34:32.200Z,3.60
2023-04-23T01:36:58.975Z,3.80
2023-04-23T01:39:25.565Z,3.88
2023-04-23T01:41:52.950Z,3.63
2023-04-23T01:44:19.315Z,3.65
2023-04-23T01:46:45.762Z,4.07
2023-04-23T01:49:12.489Z,3.70
2023-04-23T01:51:38.809Z,3.92
2023-04-23T01:54:05.191Z,3.63
2023-04-23T01:56:33.308Z,3.90
2023-04-23T01:58:59.591Z,3.50
2023-04-23T02:01:25.895Z,3.58
2023-04-23T02:03:52.305Z,3.95
2023-04-23T02:06:18.737Z,3.58
2023-04-23T02:08:45.115Z,3.80
2023-04-23T02:11:11.378Z,3.42
2023-04-23T02:13:37.712Z,3.35
2023-04-23T02:16:04.208Z,3.83
2023-04-23T02:18:30.762Z,4.10
2023-04-23T02:20:59.685Z,3.88
2023-04-23T02:23:26.002Z,3.75
2023-04-23T02:25:52.594Z,3.72
2023-04-23T02:28:18.930Z,3.60
2023-04-23T02:30:47.770Z,3.65
2023-04-23T02:33:14.195Z,3.45
2023-04-23T02:35:40.894Z,3.47
2023-04-23T02:38:07.155Z,3.90
2023-04-23T02:40:33.468Z,4.03
2023-04-23T02:42:59.808Z,3.33
2023-04-23T02:45:26.145Z,3.50
2023-04-23T02:47:53.473Z,3.38
2023-04-23T02:50:21.260Z,3.70
2023-04-23T02:52:48.890Z,3.30
2023-04-23T02:55:15.586Z,4.38
2023-04-23T02:57:42.214Z,3.75
2023-04-23T03:00:08.929Z,3.78
2023-04-23T03:02:35.611Z,3.55
2023-04-23T03:05:02.204Z,3.58
2023-04-23T03:07:28.497Z,3.67
2023-04-23T03:09:54.838Z,3.90
2023-04-23T03:12:21.111Z,3.65
2023-04-23T03:14:47.454Z,3.80
2023-04-23T03:17:13.727Z,4.00
2023-04-23T03:19:40.002Z,3.60
2023-04-23T03:22:06.241Z,3.33
2023-04-23T03:24:33.227Z,3.30
2023-04-23T03:27:00.039Z,3.10
2023-04-23T03:29:26.502Z,3.33
2023-04-23T03:31:52.837Z,2.92
2023-04-23T03:34:19.126Z,3.30
2023-04-23T03:36:46.468Z,3.47
2023-04-23T03:39:12.782Z,3.45
2023-04-23T03:41:39.061Z,3.25
2023-04-23T03:44:05.477Z,3.17
2023-04-23T03:46:32.050Z,3.25
2023-04-23T03:48:58.490Z,3.10
2023-04-23T03:51:24.805Z,3.30
2023-04-23T03:53:51.827Z,3.30
2023-04-23T03:56:18.068Z,2.80
2023-04-23T03:58:44.377Z,3.20
2023-04-23T04:01:10.889Z,3.58
2023-04-23T04:03:37.311Z,3.28
2023-04-23T04:06:03.892Z,3.10
2023-04-23T04:08:30.252Z,3.30
2023-04-23T04:10:56.590Z,3.28
2023-04-23T04:13:22.888Z,3.45
2023-04-23T04:15:49.214Z,2.67
2023-04-23T04:18:16.108Z,3.00
2023-04-23T04:20:44.258Z,2.70
2023-04-23T04:23:10.637Z,3.05
2023-04-23T04:25:39.984Z,3.10
2023-04-23T04:28:11.804Z,2.95
2023-04-23T04:30:39.423Z,2.67
2023-04-23T04:33:05.899Z,3.35
2023-04-23T04:35:32.262Z,3.20
2023-04-23T04:37:58.920Z,2.85
2023-04-23T04:40:28.534Z,2.95
2023-04-23T04:42:55.143Z,2.92
2023-04-23T04:45:21.440Z,2.85
2023-04-23T04:47:47.759Z,2.90
2023-04-23T04:50:14.076Z,2.72
2023-04-23T04:52:40.445Z,2.97
2023-04-23T04:55:07.175Z,2.78
2023-04-23T04:57:33.537Z,2.63
2023-04-23T05:00:03.028Z,2.80
2023-04-23T05:02:29.526Z,2.53
2023-04-23T05:04:55.954Z,2.92
2023-04-23T05:07:22.198Z,3.10
2023-04-23T05:09:48.546Z,3.05
2023-04-23T05:12:14.862Z,2.95
2023-04-23T05:14:41.341Z,2.88
2023-04-23T05:17:07.829Z,2.75
2023-04-23T05:19:34.126Z,2.78
2023-04-23T05:22:02.610Z,3.10
2023-04-23T05:24:28.879Z,2.60
2023-04-23T05:26:55.176Z,2.75
2023-04-23T05:29:21.516Z,2.70
2023-04-23T05:31:47.865Z,2.50
2023-04-23T05:34:14.193Z,2.70
2023-04-23T05:36:40.711Z,2.60
2023-04-23T05:39:07.047Z,2.40
2023-04-23T05:41:33.914Z,2.80
2023-04-23T05:44:00.388Z,2.72
2023-04-23T05:46:26.723Z,3.05
2023-04-23T05:48:53.741Z,2.70
2023-04-23T05:51:20.142Z,2.30
2023-04-23T05:53:46.510Z,2.80
2023-04-23T05:56:12.865Z,2.17
2023-04-23T05:58:39.281Z,2.92
2023-04-23T06:01:05.787Z,2.22
2023-04-23T06:03:32.696Z,2.53
2023-04-23T06:05:59.315Z,2.30
2023-04-23T06:08:25.745Z,2.88
2023-04-23T06:10:56.323Z,2.30
2023-04-23T06:13:25.608Z,2.50
2023-04-23T06:15:52.063Z,2.80
2023-04-23T06:18:18.530Z,3.13
2023-04-23T06:20:45.191Z,2.70
2023-04-23T06:23:12.797Z,2.53
2023-04-23T06:25:39.145Z,2.70
2023-04-23T06:28:06.261Z,2.40
2023-04-23T06:30:39.493Z,2.80
2023-04-23T06:33:22.933Z,2.80
2023-04-23T06:35:50.048Z,2.42
2023-04-23T06:38:51.131Z,2.55
2023-04-23T06:41:22.357Z,2.40
2023-04-23T06:43:49.897Z,2.65
2023-04-23T06:46:16.386Z,2.88
2023-04-23T06:48:42.725Z,2.70
2023-04-23T06:51:09.152Z,2.60
2023-04-23T06:57:07.638Z,2.45
2023-04-23T06:59:34.001Z,2.53
2023-04-23T07:02:00.439Z,2.40
2023-04-23T07:04:26.878Z,2.22
2023-04-23T07:06:53.361Z,2.42
2023-04-23T07:09:19.993Z,2.67
2023-04-23T07:11:46.396Z,2.78
2023-04-23T07:14:12.780Z,2.50
2023-04-23T07:16:39.270Z,2.42
2023-04-23T07:19:05.684Z,2.53
2023-04-23T07:21:33.092Z,2.50
2023-04-23T07:24:07.337Z,2.50
2023-04-23T07:26:34.392Z,2.58
2023-04-23T07:29:01.315Z,2.80
2023-04-23T07:31:28.534Z,2.45
2023-04-23T07:34:02.194Z,2.30
2023-04-23T07:36:29.137Z,2.30
2023-04-23T07:38:55.435Z,2.63
2023-04-23T07:41:21.814Z,2.08
2023-04-23T07:43:48.225Z,2.33
2023-04-23T07:46:14.934Z,2.40
2023-04-23T07:48:43.717Z,2.03
2023-04-23T07:51:11.988Z,2.40
2023-04-23T07:53:38.315Z,2.38
2023-04-23T07:56:05.257Z,2.40
2023-04-23T07:58:33.228Z,2.20
2023-04-23T08:00:59.476Z,2.03
2023-04-23T08:03:25.915Z,2.55
2023-04-23T08:05:53.271Z,2.50
2023-04-23T08:08:19.572Z,2.25
2023-04-23T08:10:46.258Z,1.90
2023-04-23T08:13:12.584Z,2.38
2023-04-23T08:15:38.961Z,2.05
2023-04-23T08:18:05.425Z,2.15
2023-04-23T08:20:32.524Z,2.42
2023-04-23T08:22:58.963Z,2.22
2023-04-23T08:25:25.237Z,2.28
2023-04-23T08:27:53.860Z,1.95
2023-04-23T08:30:20.237Z,2.15
2023-04-23T08:32:54.208Z,2.03
2023-04-23T08:35:24.628Z,2.30
2023-04-23T08:37:51.019Z,1.98
2023-04-23T08:40:20.500Z,2.20
2023-04-23T08:42:46.856Z,2.10
2023-04-23T08:45:18.656Z,2.28
2023-04-23T08:47:55.382Z,2.22
2023-04-23T08:50:21.716Z,1.83
2023-04-23T08:52:54.242Z,2.13
2023-04-23T08:55:21.365Z,1.95
2023-04-23T08:57:47.820Z,1.83
2023-04-23T09:00:15.545Z,2.00
2023-04-23T09:02:42.736Z,2.00
2023-04-23T09:05:09.489Z,2.15
2023-04-23T09:07:36.869Z,1.92
2023-04-23T09:10:04.141Z,2.17
2023-04-23T09:12:30.590Z,1.92
2023-04-23T09:14:56.985Z,1.63
2023-04-23T09:17:23.869Z,1.70
2023-04-23T09:19:51.039Z,1.55
2023-04-23T09:22:37.258Z,1.80
2023-04-23T09:25:05.691Z,1.73
2023-04-23T09:27:32.037Z,1.92
2023-04-23T09:30:00.254Z,1.58
2023-04-23T09:32:42.072Z,1.80
2023-04-23T09:35:10.005Z,1.45
2023-04-23T09:37:36.569Z,1.42
2023-04-23T09:40:04.888Z,1.50
2023-04-23T09:42:32.789Z,1.73
2023-04-23T09:45:07.721Z,1.75
2023-04-23T09:47:34.637Z,1.30
2023-04-23T09:50:01.361Z,1.30
2023-04-23T09:52:31.068Z,1.60
2023-04-23T09:54:59.162Z,1.40
2023-04-23T09:57:26.172Z,1.55
2023-04-23T09:59:57.428Z,1.50
2023-04-23T10:02:33.951Z,1.58
2023-04-23T10:05:14.150Z,1.40
2023-04-23T10:07:48.829Z,1.60
2023-04-23T10:10:19.258Z,1.42
2023-04-23T10:12:54.853Z,1.35
2023-04-23T10:15:23.011Z,1.67
2023-04-23T10:17:51.535Z,1.40
2023-04-23T10:20:20.050Z,1.65
2023-04-23T10:22:50.119Z,1.30
2023-04-23T10:25:16.663Z,1.65
2023-04-23T10:27:52.241Z,1.50
2023-04-23T10:30:20.630Z,1.50
2023-04-23T10:32:49.471Z,1.25
2023-04-23T10:35:17.633Z,1.48
2023-04-23T10:37:44.510Z,1.45
2023-04-23T10:40:14.104Z,1.35
2023-04-23T10:42:41.163Z,1.25
2023-04-23T10:45:24.614Z,1.38
2023-04-23T10:47:52.993Z,1.15
2023-04-23T10:50:23.465Z,1.35
2023-04-23T10:52:53.447Z,1.30
2023-04-23T10:55:21.526Z,1.30
2023-04-23T10:58:07.419Z,1.40
2023-04-23T11:00:46.736Z,1.40
2023-04-23T11:03:34.971Z,1.10
2023-04-23T11:06:03.808Z,1.17
2023-04-23T11:08:32.225Z,1.75
2023-04-23T11:10:59.246Z,1.17
2023-04-23T11:13:27.221Z,1.75
2023-04-23T11:16:12.375Z,1.60
2023-04-23T11:18:57.359Z,1.33
2023-04-23T11:21:43.605Z,1.40
2023-04-23T11:24:15.886Z,1.40
2023-04-23T11:26:42.780Z,1.30
2023-04-23T11:29:09.589Z,1.38
2023-04-23T11:31:42.704Z,1.40
2023-04-23T11:34:18.382Z,1.27
2023-04-23T11:36:47.061Z,1.20
2023-04-23T11:39:13.651Z,1.48
2023-04-23T11:41:43.553Z,1.13
2023-04-23T11:44:10.411Z,1.27
2023-04-23T11:46:38.032Z,1.20
2023-04-23T11:49:04.474Z,1.20
2023-04-23T11:51:30.816Z,1.40
2023-04-23T11:54:02.178Z,1.10
2023-04-23T11:56:31.907Z,0.93
2023-04-23T11:58:58.913Z,1.10
2023-04-23T12:01:25.310Z,0.88
2023-04-23T12:03:51.827Z,1.20
2023-04-23T12:06:18.497Z,0.98
2023-04-23T12:08:49.357Z,1.30
2023-04-23T12:11:15.726Z,1.20
2023-04-23T12:13:43.456Z,1.27
2023-04-23T12:16:11.216Z,1.45
2023-04-23T12:18:42.287Z,0.95
2023-04-23T12:21:09.500Z,1.00
2023-04-23T12:23:36.700Z,0.98
2023-04-23T12:26:03.300Z,1.00
2023-04-23T12:28:29.885Z,1.20
2023-04-23T12:31:01.491Z,1.30
2023-04-23T12:33:32.865Z,1.00
2023-04-23T12:36:00.879Z,0.98
2023-04-23T12:38:28.329Z,1.20
2023-04-23T12:40:55.548Z,1.20
2023-04-23T12:43:21.978Z,1.30
2023-04-23T12:45:49.489Z,1.40
2023-04-23T12:48:16.049Z,0.82
2023-04-23T12:50:42.656Z,1.00
2023-04-23T12:53:09.064Z,0.98
2023-04-23T12:55:35.427Z,1.10
2023-04-23T12:58:01.710Z,1.35
2023-04-23T13:00:27.991Z,1.20
2023-04-23T13:02:56.430Z,1.30
2023-04-23T13:05:23.347Z,1.00
2023-04-23T13:07:49.717Z,1.15
2023-04-23T13:10:16.150Z,1.15
2023-04-23T13:12:43.399Z,1.30
2023-04-23T13:15:12.725Z,1.55
2023-04-23T13:17:39.098Z,1.60
2023-04-23T13:20:05.774Z,1.85
2023-04-23T13:22:32.997Z,1.58
2023-04-23T13:24:59.698Z,1.45
2023-04-23T13:27:28.179Z,1.52
2023-04-23T13:29:55.073Z,1.75
2023-04-23T13:32:24.632Z,2.10
2023-04-23T13:34:51.333Z,2.30
2023-04-23T13:37:17.579Z,1.35
2023-04-23T13:39:44.788Z,1.60
2023-04-23T13:42:11.690Z,1.50
2023-04-23T13:44:38.001Z,1.40
2023-04-23T13:47:04.513Z,1.40
2023-04-23T13:49:30.819Z,1.38
2023-04-23T13:52:04.207Z,1.80
2023-04-23T13:54:30.671Z,1.58
2023-04-23T13:56:57.067Z,1.35
2023-04-23T13:59:24.450Z,1.63
2023-04-23T14:01:50.731Z,1.50
2023-04-23T14:04:17.763Z,1.02
2023-04-23T14:06:44.241Z,1.20
2023-04-23T14:09:10.754Z,1.27
2023-04-23T14:11:37.609Z,1.20
2023-04-23T14:14:04.580Z,1.48
2023-04-23T14:16:30.973Z,1.42
2023-04-23T14:18:57.282Z,1.02
2023-04-23T14:21:23.705Z,1.13
2023-04-23T14:23:55.252Z,1.13
2023-04-23T14:26:29.574Z,1.10
2023-04-23T14:29:08.618Z,1.05
2023-04-23T14:31:37.286Z,1.63
2023-04-23T14:34:04.582Z,1.10
2023-04-23T14:36:30.925Z,1.20
2023-04-23T14:38:59.001Z,2.15
2023-04-23T14:41:25.311Z,1.40
2023-04-23T14:43:51.565Z,0.98
2023-04-23T14:46:17.837Z,1.23
2023-04-23T14:48:44.178Z,1.15
2023-04-23T14:51:10.503Z,1.00
2023-04-23T14:53:37.637Z,1.23
2023-04-23T14:56:04.835Z,1.17
2023-04-23T14:58:31.130Z,0.88
2023-04-23T15:00:57.414Z,1.10
2023-04-23T15:03:23.836Z,1.27
2023-04-23T15:05:50.658Z,1.00
2023-04-23T15:08:16.995Z,1.33
2023-04-23T15:10:43.355Z,1.13
2023-04-23T15:13:15.582Z,1.42
2023-04-23T15:15:48.305Z,1.38
2023-04-23T15:18:15.441Z,1.38
2023-04-23T15:20:42.145Z,1.60
2023-04-23T15:23:08.928Z,1.42
2023-04-23T15:25:35.614Z,1.60
2023-04-23T15:28:03.474Z,1.10
2023-04-23T15:30:30.071Z,1.33
2023-04-23T15:32:56.431Z,1.23
2023-04-23T15:35:26.715Z,1.60
2023-04-23T15:37:55.807Z,1.40
2023-04-23T15:40:22.212Z,1.40
2023-04-23T15:42:50.719Z,1.38
2023-04-23T15:45:18.087Z,1.40
2023-04-23T15:47:44.486Z,1.55
2023-04-23T15:50:11.737Z,1.42
2023-04-23T15:52:38.251Z,1.35
2023-04-23T15:55:05.177Z,1.50
2023-04-23T15:57:31.958Z,1.70
2023-04-23T15:59:58.328Z,1.48
2023-04-23T16:02:24.705Z,1.20
2023-04-23T16:04:51.414Z,1.25
2023-04-23T16:07:17.852Z,1.40
2023-04-23T16:09:45.205Z,1.30
2023-04-23T16:12:12.347Z,1.33
2023-04-23T16:14:38.797Z,1.40
2023-04-23T16:17:05.067Z,1.42
2023-04-23T16:19:31.654Z,1.17
2023-04-23T16:21:58.009Z,1.40
2023-04-23T16:24:24.596Z,1.40
2023-04-23T16:26:50.915Z,1.50
2023-04-23T16:29:22.701Z,1.50
2023-04-23T16:31:49.825Z,1.38
2023-04-23T16:34:18.769Z,1.30
2023-04-23T16:36:45.164Z,1.70
2023-04-23T16:39:11.698Z,1.50
2023-04-23T16:41:38.193Z,1.42
2023-04-23T16:44:04.687Z,1.63
2023-04-23T16:46:31.704Z,1.20
2023-04-23T16:48:58.405Z,1.60
2023-04-23T16:51:26.917Z,1.25
2023-04-23T16:53:53.415Z,1.30
2023-04-23T16:56:20.369Z,1.30
2023-04-23T16:58:47.127Z,1.60
2023-04-23T17:01:13.843Z,1.50
2023-04-23T17:03:40.658Z,1.13
2023-04-23T17:06:10.206Z,1.38
2023-04-23T17:08:39.802Z,1.35
2023-04-23T17:11:06.858Z,1.50
2023-04-23T17:13:34.202Z,1.63
2023-04-23T17:16:00.926Z,1.20
2023-04-23T17:18:27.580Z,1.45
2023-04-23T17:20:54.136Z,1.10
2023-04-23T17:23:20.452Z,1.00
2023-04-23T17:25:47.028Z,1.20
2023-04-23T17:28:13.398Z,1.20
2023-04-23T17:30:39.708Z,1.63
2023-04-23T17:33:06.132Z,1.40
2023-04-23T17:35:32.443Z,1.35
2023-04-23T17:37:58.702Z,1.30
2023-04-23T17:40:25.037Z,1.10
2023-04-23T17:42:51.643Z,1.45
2023-04-23T17:45:18.516Z,1.30
2023-04-23T17:47:45.969Z,1.40
2023-04-23T17:50:12.349Z,2.15
2023-04-23T17:52:40.997Z,1.75
2023-04-23T17:55:11.329Z,1.23
2023-04-23T17:57:37.627Z,1.55
2023-04-23T18:00:09.715Z,1.95
2023-04-23T18:02:40.255Z,1.88
2023-04-23T18:05:10.087Z,1.63
2023-04-23T18:07:36.640Z,1.60
2023-04-23T18:10:03.767Z,1.77
2023-04-23T18:12:30.526Z,1.30
2023-04-23T18:14:56.931Z,1.27
2023-04-23T18:17:23.652Z,1.30
2023-04-23T18:19:50.133Z,1.38
2023-04-23T18:22:16.812Z,1.30
2023-04-23T18:24:43.952Z,1.23
2023-04-23T18:27:11.192Z,1.13
2023-04-23T18:29:37.642Z,1.17
2023-04-23T18:32:04.407Z,1.20
2023-04-23T18:34:33.198Z,0.90
2023-04-23T18:37:02.831Z,1.20
2023-04-23T18:39:32.455Z,1.20
2023-04-23T18:42:00.002Z,1.25
2023-04-23T18:44:26.622Z,0.85
2023-04-23T18:46:53.191Z,1.15
2023-04-23T18:49:22.717Z,1.38
2023-04-23T18:51:52.755Z,1.55
2023-04-23T18:54:21.696Z,1.83
2023-04-23T18:56:50.077Z,1.50
2023-04-23T18:59:16.539Z,1.27
2023-04-23T19:01:44.610Z,1.05
2023-04-23T19:04:11.234Z,0.88
2023-04-23T19:06:38.031Z,1.10
2023-04-23T19:09:05.932Z,1.17
2023-04-23T19:11:35.028Z,0.77
2023-04-23T19:14:02.093Z,0.80
2023-04-23T19:16:28.441Z,0.90
2023-04-23T19:18:55.197Z,1.25
2023-04-23T19:21:21.500Z,0.80
2023-04-23T19:23:47.863Z,0.57
2023-04-23T19:26:14.296Z,0.77
2023-04-23T19:28:40.635Z,0.60
2023-04-23T19:31:08.325Z,0.50
2023-04-23T19:33:34.839Z,0.80
2023-04-23T19:36:01.386Z,0.75
2023-04-23T19:38:27.908Z,0.70
2023-04-23T19:40:54.842Z,0.63
2023-04-23T19:43:21.335Z,0.45
2023-04-23T19:45:47.621Z,0.60
2023-04-23T19:48:14.032Z,0.55
2023-04-23T19:50:40.536Z,0.63
2023-04-23T19:53:06.851Z,0.38
2023-04-23T19:55:33.118Z,0.60
2023-04-23T19:58:00.534Z,0.47
2023-04-23T20:00:30.011Z,0.68
2023-04-23T20:02:56.442Z,0.40
2023-04-23T20:05:22.852Z,0.55
2023-04-23T20:07:50.715Z,0.60
2023-04-23T20:10:17.605Z,0.50
2023-04-23T20:12:44.273Z,0.70
2023-04-23T20:15:10.843Z,0.40
2023-04-23T20:17:38.127Z,0.70
2023-04-23T20:20:06.516Z,0.40
2023-04-23T20:22:34.087Z,0.45
2023-04-23T20:25:01.931Z,0.30
2023-04-23T20:27:28.320Z,0.52
2023-04-23T20:29:54.662Z,0.50
2023-04-23T20:32:21.161Z,0.55
2023-04-23T20:34:47.466Z,0.28
2023-04-23T20:37:13.765Z,0.70
2023-04-23T20:39:40.383Z,0.30
2023-04-23T20:42:08.238Z,0.60
2023-04-23T20:44:34.549Z,0.60
2023-04-23T20:47:04.832Z,0.70
2023-04-23T20:49:32.104Z,0.60
2023-04-23T20:51:58.529Z,0.90
2023-04-23T20:54:24.995Z,1.05
2023-04-23T20:56:54.451Z,0.77
2023-04-23T20:59:21.870Z,0.65
2023-04-23T21:01:48.758Z,0.82
2023-04-23T21:04:16.360Z,1.00
2023-04-23T21:06:43.160Z,0.50
2023-04-23T21:09:11.167Z,0.90
2023-04-23T21:11:37.619Z,0.70
2023-04-23T21:14:08.404Z,0.70
2023-04-23T21:16:36.562Z,0.77
2023-04-23T21:19:06.149Z,0.70
2023-04-23T21:21:32.897Z,0.52
2023-04-23T21:24:00.591Z,1.00
2023-04-23T21:26:27.778Z,0.70
2023-04-23T21:28:54.089Z,0.68
2023-04-23T21:31:29.596Z,0.80
2023-04-23T21:33:56.963Z,1.03
2023-04-23T21:36:23.365Z,0.50
2023-04-23T21:38:49.736Z,1.05
2023-04-23T21:41:15.983Z,0.82
2023-04-23T21:43:42.303Z,0.90
2023-04-23T21:46:08.608Z,0.88
2023-04-23T21:48:37.402Z,0.80
2023-04-23T21:51:03.716Z,0.75
2023-04-23T21:53:30.086Z,0.90
2023-04-23T21:55:56.388Z,0.70
2023-04-23T21:58:22.712Z,0.60
2023-04-23T22:00:49.143Z,0.80
2023-04-23T22:03:18.067Z,0.73
2023-04-23T22:05:52.162Z,0.90
2023-04-23T22:08:18.583Z,0.75
2023-04-23T22:10:44.889Z,0.85
2023-04-23T22:13:11.256Z,1.08
2023-04-23T22:15:37.659Z,0.70
2023-04-23T22:18:04.089Z,0.82
2023-04-23T22:20:30.616Z,0.90
2023-04-23T22:22:56.942Z,0.80
2023-04-23T22:25:23.470Z,0.90
2023-04-23T22:27:49.731Z,1.08
2023-04-23T22:30:18.003Z,0.82
2023-04-23T22:32:44.366Z,0.77
2023-04-23T22:35:10.948Z,1.10
2023-04-23T22:37:37.499Z,0.70
2023-04-23T22:40:04.240Z,0.57
2023-04-23T22:42:31.091Z,1.08
2023-04-23T22:44:57.359Z,1.02
2023-04-23T22:47:23.679Z,0.90
2023-04-23T22:49:50.365Z,0.90
2023-04-23T22:52:16.823Z,1.10
2023-04-23T22:54:44.319Z,1.10
2023-04-23T22:57:11.437Z,0.90
2023-04-23T22:59:38.751Z,1.17
2023-04-23T23:02:05.684Z,1.00
2023-04-23T23:04:32.632Z,0.75
2023-04-23T23:06:58.966Z,0.80
2023-04-23T23:09:25.421Z,0.95
2023-04-23T23:11:51.721Z,1.10
2023-04-23T23:14:18.249Z,1.00
2023-04-23T23:16:44.684Z,0.95
2023-04-23T23:19:12.322Z,0.90
2023-04-23T23:21:38.707Z,0.93
2023-04-23T23:24:05.991Z,0.80
2023-04-23T23:26:32.345Z,1.02
2023-04-23T23:28:58.584Z,1.10
2023-04-23T23:31:25.959Z,1.10
2023-04-23T23:33:52.894Z,0.82
2023-04-23T23:36:19.298Z,1.33
2023-04-23T23:38:46.358Z,1.23
2023-04-23T23:41:13.394Z,1.02
2023-04-23T23:43:39.742Z,1.10
2023-04-23T23:46:06.075Z,1.08
2023-04-23T23:48:32.400Z,1.10
2023-04-23T23:50:58.751Z,1.00
2023-04-23T23:53:25.091Z,1.17
2023-04-23T23:55:51.320Z,1.13
2023-04-23T23:58:17.612Z,1.40
